sensor_id;sensor_type;location;lat;lon;timestamp;pressure;altitude;pressure_sealevel;temperature;humidity
60355;BME280;46198;51.464;-0.066;2024-03-23T00:54:58;101366.00;;;6.01;100.00
60355;BME280;46198;51.464;-0.066;2024-03-23T00:57:24;101367.88;;;6.00;100.00
60355;BME280;46198;51.464;-0.066;2024-03-23T00:59:51;101355.38;;;5.99;100.00
60355;BME280;46198;51.464;-0.066;2024-03-23T01:02:18;101348.28;;;6.06;100.00
60355;BME280;46198;51.464;-0.066;2024-03-23T01:04:46;101350.66;;;6.01;100.00
60355;BME280;46198;51.464;-0.066;2024-03-23T01:07:15;101349.00;;;6.00;100.00
60355;BME280;46198;51.464;-0.066;2024-03-23T01:09:44;101350.34;;;5.96;100.00
60355;BME280;46198;51.464;-0.066;2024-03-23T01:12:11;101339.78;;;5.94;100.00
60355;BME280;46198;51.464;-0.066;2024-03-23T01:14:39;101342.75;;;5.91;100.00
60355;BME280;46198;51.464;-0.066;2024-03-23T01:17:05;101332.19;;;5.90;100.00
60355;BME280;46198;51.464;-0.066;2024-03-23T01:19:33;101344.63;;;5.91;100.00
60355;BME280;46198;51.464;-0.066;2024-03-23T01:21:59;101335.88;;;5.89;100.00
60355;BME280;46198;51.464;-0.066;2024-03-23T01:24:27;101329.28;;;5.91;100.00
60355;BME280;46198;51.464;-0.066;2024-03-23T01:26:54;101334.50;;;5.93;100.00
60355;BME280;46198;51.464;-0.066;2024-03-23T01:29:22;101337.56;;;5.90;100.00
60355;BME280;46198;51.464;-0.066;2024-03-23T01:31:48;101335.53;;;5.92;100.00
60355;BME280;46198;51.464;-0.066;2024-03-23T01:34:16;101346.84;;;5.87;100.00
60355;BME280;46198;51.464;-0.066;2024-03-23T01:36:42;101342.97;;;5.90;100.00
60355;BME280;46198;51.464;-0.066;2024-03-23T01:39:10;101347.69;;;5.88;100.00
60355;BME280;46198;51.464;-0.066;2024-03-23T01:41:36;101343.94;;;5.89;100.00
60355;BME280;46198;51.464;-0.066;2024-03-23T01:44:07;101344.16;;;5.87;100.00
60355;BME280;46198;51.464;-0.066;2024-03-23T01:46:34;101342.66;;;5.85;100.00
60355;BME280;46198;51.464;-0.066;2024-03-23T01:49:02;101346.69;;;5.81;100.00
60355;BME280;46198;51.464;-0.066;2024-03-23T01:51:29;101344.53;;;5.76;100.00
60355;BME280;46198;51.464;-0.066;2024-03-23T01:53:56;101351.78;;;5.75;100.00
60355;BME280;46198;51.464;-0.066;2024-03-23T01:56:23;101337.47;;;5.75;100.00
60355;BME280;46198;51.464;-0.066;2024-03-23T01:58:50;101346.56;;;5.74;100.00
60355;BME280;46198;51.464;-0.066;2024-03-23T02:01:18;101343.72;;;5.75;100.00
60355;BME280;46198;51.464;-0.066;2024-03-23T02:03:45;101341.38;;;5.64;100.00
60355;BME280;46198;51.464;-0.066;2024-03-23T02:06:12;101340.50;;;5.72;100.00
60355;BME280;46198;51.464;-0.066;2024-03-23T02:08:43;101333.25;;;5.72;100.00
60355;BME280;46198;51.464;-0.066;2024-03-23T02:11:10;101332.66;;;5.62;100.00
60355;BME280;46198;51.464;-0.066;2024-03-23T02:13:38;101334.69;;;5.60;100.00
60355;BME280;46198;51.464;-0.066;2024-03-23T02:16:05;101326.72;;;5.67;100.00
60355;BME280;46198;51.464;-0.066;2024-03-23T02:18:37;101326.13;;;5.57;100.00
60355;BME280;46198;51.464;-0.066;2024-03-23T02:21:03;101335.69;;;5.59;100.00
60355;BME280;46198;51.464;-0.066;2024-03-23T02:23:32;101331.16;;;5.60;100.00
60355;BME280;46198;51.464;-0.066;2024-03-23T02:25:59;101328.16;;;5.46;100.00
60355;BME280;46198;51.464;-0.066;2024-03-23T02:28:26;101329.84;;;5.47;100.00
60355;BME280;46198;51.464;-0.066;2024-03-23T02:30:54;101328.69;;;5.42;100.00
60355;BME280;46198;51.464;-0.066;2024-03-23T02:33:20;101327.00;;;5.41;100.00
60355;BME280;46198;51.464;-0.066;2024-03-23T02:35:47;101330.66;;;5.48;100.00
60355;BME280;46198;51.464;-0.066;2024-03-23T02:38:14;101328.53;;;5.43;100.00
60355;BME280;46198;51.464;-0.066;2024-03-23T02:40:43;101325.63;;;5.45;100.00
60355;BME280;46198;51.464;-0.066;2024-03-23T02:43:09;101324.31;;;5.41;100.00
60355;BME280;46198;51.464;-0.066;2024-03-23T02:45:37;101318.94;;;5.41;100.00
60355;BME280;46198;51.464;-0.066;2024-03-23T02:48:03;101328.34;;;5.37;100.00
60355;BME280;46198;51.464;-0.066;2024-03-23T02:50:31;101325.00;;;5.34;100.00
60355;BME280;46198;51.464;-0.066;2024-03-23T02:52:57;101323.69;;;5.30;100.00
60355;BME280;46198;51.464;-0.066;2024-03-23T02:55:25;101318.28;;;5.30;100.00
60355;BME280;46198;51.464;-0.066;2024-03-23T02:57:52;101318.28;;;5.30;100.00
60355;BME280;46198;51.464;-0.066;2024-03-23T03:00:20;101328.03;;;5.31;100.00
60355;BME280;46198;51.464;-0.066;2024-03-23T03:02:46;101336.81;;;5.25;100.00
60355;BME280;46198;51.464;-0.066;2024-03-23T03:05:14;101322.69;;;5.23;100.00
60355;BME280;46198;51.464;-0.066;2024-03-23T03:07:40;101317.63;;;5.20;100.00
60355;BME280;46198;51.464;-0.066;2024-03-23T03:10:07;101325.75;;;5.12;100.00
60355;BME280;46198;51.464;-0.066;2024-03-23T03:12:37;101322.06;;;5.13;100.00
60355;BME280;46198;51.464;-0.066;2024-03-23T03:15:06;101330.63;;;5.17;100.00
60355;BME280;46198;51.464;-0.066;2024-03-23T03:17:33;101323.38;;;5.17;100.00
60355;BME280;46198;51.464;-0.066;2024-03-23T03:20:00;101330.44;;;5.18;100.00
60355;BME280;46198;51.464;-0.066;2024-03-23T03:22:26;101324.22;;;5.09;100.00
60355;BME280;46198;51.464;-0.066;2024-03-23T03:24:54;101323.03;;;5.12;100.00
60355;BME280;46198;51.464;-0.066;2024-03-23T03:27:20;101317.84;;;5.10;100.00
60355;BME280;46198;51.464;-0.066;2024-03-23T03:29:48;101319.69;;;5.10;100.00
60355;BME280;46198;51.464;-0.066;2024-03-23T03:32:16;101320.34;;;5.12;100.00
60355;BME280;46198;51.464;-0.066;2024-03-23T03:34:43;101320.03;;;5.07;100.00
60355;BME280;46198;51.464;-0.066;2024-03-23T03:37:09;101315.81;;;5.04;100.00
60355;BME280;46198;51.464;-0.066;2024-03-23T03:39:37;101316.38;;;5.00;100.00
60355;BME280;46198;51.464;-0.066;2024-03-23T03:42:03;101323.75;;;4.98;100.00
60355;BME280;46198;51.464;-0.066;2024-03-23T03:44:32;101317.34;;;4.99;100.00
60355;BME280;46198;51.464;-0.066;2024-03-23T03:46:59;101317.34;;;4.99;100.00
60355;BME280;46198;51.464;-0.066;2024-03-23T03:49:27;101307.44;;;4.91;100.00
60355;BME280;46198;51.464;-0.066;2024-03-23T03:51:53;101304.25;;;4.96;100.00
60355;BME280;46198;51.464;-0.066;2024-03-23T03:54:21;101299.06;;;4.94;100.00
60355;BME280;46198;51.464;-0.066;2024-03-23T03:56:47;101296.16;;;4.96;100.00
60355;BME280;46198;51.464;-0.066;2024-03-23T03:59:15;101301.56;;;4.96;100.00
60355;BME280;46198;51.464;-0.066;2024-03-23T04:01:41;101300.91;;;4.85;100.00
60355;BME280;46198;51.464;-0.066;2024-03-23T04:04:08;101301.91;;;4.93;100.00
60355;BME280;46198;51.464;-0.066;2024-03-23T04:06:36;101292.47;;;4.88;100.00
60355;BME280;46198;51.464;-0.066;2024-03-23T04:09:04;101298.53;;;4.82;100.00
60355;BME280;46198;51.464;-0.066;2024-03-23T04:11:32;101297.38;;;4.85;100.00
60355;BME280;46198;51.464;-0.066;2024-03-23T04:13:59;101295.69;;;4.84;100.00
60355;BME280;46198;51.464;-0.066;2024-03-23T04:16:29;101302.75;;;4.85;100.00
60355;BME280;46198;51.464;-0.066;2024-03-23T04:18:57;101291.50;;;4.81;100.00
60355;BME280;46198;51.464;-0.066;2024-03-23T04:21:23;101301.94;;;4.76;100.00
60355;BME280;46198;51.464;-0.066;2024-03-23T04:23:52;101300.75;;;4.79;100.00
60355;BME280;46198;51.464;-0.066;2024-03-23T04:26:18;101311.31;;;4.80;100.00
60355;BME280;46198;51.464;-0.066;2024-03-23T04:28:46;101300.56;;;4.80;100.00
60355;BME280;46198;51.464;-0.066;2024-03-23T04:31:12;101306.13;;;4.79;100.00
60355;BME280;46198;51.464;-0.066;2024-03-23T04:33:39;101301.25;;;4.74;100.00
60355;BME280;46198;51.464;-0.066;2024-03-23T04:36:06;101308.34;;;4.75;100.00
60355;BME280;46198;51.464;-0.066;2024-03-23T04:38:33;101304.28;;;4.71;100.00
60355;BME280;46198;51.464;-0.066;2024-03-23T04:41:02;101306.97;;;4.71;100.00
60355;BME280;46198;51.464;-0.066;2024-03-23T04:43:30;101298.91;;;4.71;100.00
60355;BME280;46198;51.464;-0.066;2024-03-23T04:45:57;101296.91;;;4.65;100.00
60355;BME280;46198;51.464;-0.066;2024-03-23T04:48:24;101296.06;;;4.64;100.00
60355;BME280;46198;51.464;-0.066;2024-03-23T04:50:54;101297.59;;;4.59;100.00
60355;BME280;46198;51.464;-0.066;2024-03-23T04:53:21;101298.09;;;4.62;100.00
60355;BME280;46198;51.464;-0.066;2024-03-23T04:55:54;101301.59;;;4.55;100.00
60355;BME280;46198;51.464;-0.066;2024-03-23T04:58:23;101288.00;;;4.64;100.00
60355;BME280;46198;51.464;-0.066;2024-03-23T05:00:53;101300.94;;;4.53;100.00
60355;BME280;46198;51.464;-0.066;2024-03-23T05:03:21;101295.22;;;4.56;100.00
60355;BME280;46198;51.464;-0.066;2024-03-23T05:05:47;101288.31;;;4.53;100.00
60355;BME280;46198;51.464;-0.066;2024-03-23T05:08:15;101293.88;;;4.60;100.00
60355;BME280;46198;51.464;-0.066;2024-03-23T05:10:42;101295.56;;;4.53;100.00
60355;BME280;46198;51.464;-0.066;2024-03-23T05:13:09;101294.56;;;4.46;100.00
60355;BME280;46198;51.464;-0.066;2024-03-23T05:15:37;101282.13;;;4.44;100.00
60355;BME280;46198;51.464;-0.066;2024-03-23T05:18:05;101291.53;;;4.40;100.00
60355;BME280;46198;51.464;-0.066;2024-03-23T05:20:33;101297.59;;;4.42;100.00
60355;BME280;46198;51.464;-0.066;2024-03-23T05:22:59;101298.59;;;4.50;100.00
60355;BME280;46198;51.464;-0.066;2024-03-23T05:25:26;101288.31;;;4.45;100.00
60355;BME280;46198;51.464;-0.066;2024-03-23T05:27:52;101294.56;;;4.37;100.00
60355;BME280;46198;51.464;-0.066;2024-03-23T05:30:20;101288.84;;;4.40;100.00
60355;BME280;46198;51.464;-0.066;2024-03-23T05:32:47;101278.09;;;4.40;100.00
60355;BME280;46198;51.464;-0.066;2024-03-23T05:35:14;101294.22;;;4.40;100.00
60355;BME280;46198;51.464;-0.066;2024-03-23T05:37:41;101293.53;;;4.38;100.00
60355;BME280;46198;51.464;-0.066;2024-03-23T05:40:09;101292.03;;;4.36;100.00
60355;BME280;46198;51.464;-0.066;2024-03-23T05:42:35;101285.81;;;4.35;100.00
60355;BME280;46198;51.464;-0.066;2024-03-23T05:45:03;101293.88;;;4.27;100.00
60355;BME280;46198;51.464;-0.066;2024-03-23T05:47:32;101293.53;;;4.30;100.00
60355;BME280;46198;51.464;-0.066;2024-03-23T05:50:00;101284.47;;;4.31;100.00
60355;BME280;46198;51.464;-0.066;2024-03-23T05:52:28;101281.97;;;4.30;100.00
60355;BME280;46198;51.464;-0.066;2024-03-23T05:54:56;101278.78;;;4.34;100.00
60355;BME280;46198;51.464;-0.066;2024-03-23T05:57:22;101275.41;;;4.32;100.00
60355;BME280;46198;51.464;-0.066;2024-03-23T05:59:50;101276.41;;;4.31;100.00
60355;BME280;46198;51.464;-0.066;2024-03-23T06:02:17;101275.56;;;4.31;100.00
60355;BME280;46198;51.464;-0.066;2024-03-23T06:04:45;101271.69;;;4.33;100.00
60355;BME280;46198;51.464;-0.066;2024-03-23T06:07:12;101278.59;;;4.36;100.00
60355;BME280;46198;51.464;-0.066;2024-03-23T06:09:40;101268.34;;;4.31;100.00
60355;BME280;46198;51.464;-0.066;2024-03-23T06:12:07;101268.03;;;4.34;100.00
60355;BME280;46198;51.464;-0.066;2024-03-23T06:14:34;101270.03;;;4.32;100.00
60355;BME280;46198;51.464;-0.066;2024-03-23T06:17:01;101277.06;;;4.33;100.00
60355;BME280;46198;51.464;-0.066;2024-03-23T06:19:28;101276.25;;;4.33;100.00
60355;BME280;46198;51.464;-0.066;2024-03-23T06:21:55;101267.34;;;4.32;100.00
60355;BME280;46198;51.464;-0.066;2024-03-23T06:24:23;101262.94;;;4.31;100.00
60355;BME280;46198;51.464;-0.066;2024-03-23T06:26:50;101262.31;;;4.37;100.00
60355;BME280;46198;51.464;-0.066;2024-03-23T06:29:17;101256.25;;;4.35;100.00
60355;BME280;46198;51.464;-0.066;2024-03-23T06:31:43;101270.53;;;4.36;100.00
60355;BME280;46198;51.464;-0.066;2024-03-23T06:34:10;101259.09;;;4.42;100.00
60355;BME280;46198;51.464;-0.066;2024-03-23T06:36:36;101258.94;;;4.43;100.00
60355;BME280;46198;51.464;-0.066;2024-03-23T06:39:04;101263.63;;;4.41;100.00
60355;BME280;46198;51.464;-0.066;2024-03-23T06:41:32;101266.66;;;4.47;100.00
60355;BME280;46198;51.464;-0.066;2024-03-23T06:43:59;101257.91;;;4.44;100.00
60355;BME280;46198;51.464;-0.066;2024-03-23T06:46:25;101255.22;;;4.44;100.00
60355;BME280;46198;51.464;-0.066;2024-03-23T06:48:53;101254.88;;;4.39;100.00
60355;BME280;46198;51.464;-0.066;2024-03-23T06:51:19;101257.25;;;4.42;100.00
60355;BME280;46198;51.464;-0.066;2024-03-23T06:53:46;101250.53;;;4.47;100.00
60355;BME280;46198;51.464;-0.066;2024-03-23T06:56:13;101261.13;;;4.48;100.00
60355;BME280;46198;51.464;-0.066;2024-03-23T06:58:41;101255.22;;;4.53;100.00
60355;BME280;46198;51.464;-0.066;2024-03-23T07:01:08;101253.19;;;4.55;100.00
60355;BME280;46198;51.464;-0.066;2024-03-23T07:03:35;101254.56;;;4.59;100.00
60355;BME280;46198;51.464;-0.066;2024-03-23T07:06:01;101250.84;;;4.60;100.00
60355;BME280;46198;51.464;-0.066;2024-03-23T07:08:28;101251.00;;;4.66;100.00
60355;BME280;46198;51.464;-0.066;2024-03-23T07:10:54;101259.56;;;4.70;100.00
60355;BME280;46198;51.464;-0.066;2024-03-23T07:13:22;101241.59;;;4.71;100.00
60355;BME280;46198;51.464;-0.066;2024-03-23T07:15:53;101240.88;;;4.77;100.00
60355;BME280;46198;51.464;-0.066;2024-03-23T07:18:21;101240.19;;;4.83;100.00
60355;BME280;46198;51.464;-0.066;2024-03-23T07:20:57;101248.78;;;4.86;100.00
60355;BME280;46198;51.464;-0.066;2024-03-23T07:23:25;101237.66;;;4.89;100.00
60355;BME280;46198;51.464;-0.066;2024-03-23T07:25:57;101241.19;;;4.90;100.00
60355;BME280;46198;51.464;-0.066;2024-03-23T07:28:25;101241.84;;;5.00;100.00
60355;BME280;46198;51.464;-0.066;2024-03-23T07:31:03;101223.47;;;5.04;100.00
60355;BME280;46198;51.464;-0.066;2024-03-23T07:33:31;101228.34;;;5.08;100.00
60355;BME280;46198;51.464;-0.066;2024-03-23T07:35:58;101236.06;;;5.11;100.00
60355;BME280;46198;51.464;-0.066;2024-03-23T07:38:26;101227.28;;;5.18;100.00
60355;BME280;46198;51.464;-0.066;2024-03-23T07:41:02;101217.88;;;5.22;100.00
60355;BME280;46198;51.464;-0.066;2024-03-23T07:43:30;101203.69;;;5.28;100.00
60355;BME280;46198;51.464;-0.066;2024-03-23T07:45:56;101217.78;;;5.38;100.00
60355;BME280;46198;51.464;-0.066;2024-03-23T07:48:25;101218.16;;;5.35;100.00
60355;BME280;46198;51.464;-0.066;2024-03-23T07:51:01;101202.41;;;5.47;100.00
60355;BME280;46198;51.464;-0.066;2024-03-23T07:53:29;101199.84;;;5.53;100.00
60355;BME280;46198;51.464;-0.066;2024-03-23T07:55:57;101201.66;;;5.61;100.00
60355;BME280;46198;51.464;-0.066;2024-03-23T07:58:25;101205.63;;;5.73;100.00
60355;BME280;46198;51.464;-0.066;2024-03-23T08:00:52;101200.66;;;5.85;100.00
60355;BME280;46198;51.464;-0.066;2024-03-23T08:03:20;101187.91;;;6.02;100.00
60355;BME280;46198;51.464;-0.066;2024-03-23T08:05:47;101183.03;;;6.20;100.00
60355;BME280;46198;51.464;-0.066;2024-03-23T08:08:15;101186.09;;;6.17;100.00
60355;BME280;46198;51.464;-0.066;2024-03-23T08:10:48;101204.16;;;6.32;100.00
60355;BME280;46198;51.464;-0.066;2024-03-23T08:13:15;101196.94;;;6.47;100.00
60355;BME280;46198;51.464;-0.066;2024-03-23T08:15:42;101196.19;;;6.53;100.00
60355;BME280;46198;51.464;-0.066;2024-03-23T08:18:10;101187.66;;;6.64;100.00
60355;BME280;46198;51.464;-0.066;2024-03-23T08:20:36;101191.56;;;6.92;100.00
60355;BME280;46198;51.464;-0.066;2024-03-23T08:23:06;101188.28;;;7.11;100.00
60355;BME280;46198;51.464;-0.066;2024-03-23T08:25:33;101190.69;;;7.36;100.00
60355;BME280;46198;51.464;-0.066;2024-03-23T08:28:00;101189.59;;;7.15;100.00
60355;BME280;46198;51.464;-0.066;2024-03-23T08:30:28;101202.19;;;7.44;100.00
60355;BME280;46198;51.464;-0.066;2024-03-23T08:32:55;101187.81;;;7.07;100.00
60355;BME280;46198;51.464;-0.066;2024-03-23T08:35:21;101199.03;;;7.41;100.00
60355;BME280;46198;51.464;-0.066;2024-03-23T08:37:48;101197.84;;;7.65;100.00
60355;BME280;46198;51.464;-0.066;2024-03-23T08:40:16;101194.25;;;7.58;100.00
60355;BME280;46198;51.464;-0.066;2024-03-23T08:42:43;101190.00;;;7.70;100.00
60355;BME280;46198;51.464;-0.066;2024-03-23T08:45:09;101197.13;;;7.56;100.00
60355;BME280;46198;51.464;-0.066;2024-03-23T08:47:37;101191.91;;;7.76;100.00
60355;BME280;46198;51.464;-0.066;2024-03-23T08:50:03;101194.13;;;7.87;100.00
60355;BME280;46198;51.464;-0.066;2024-03-23T08:52:31;101188.09;;;7.85;100.00
60355;BME280;46198;51.464;-0.066;2024-03-23T08:54:57;101186.50;;;7.97;100.00
60355;BME280;46198;51.464;-0.066;2024-03-23T08:57:29;101192.66;;;8.06;100.00
60355;BME280;46198;51.464;-0.066;2024-03-23T08:59:55;101186.16;;;7.79;100.00
60355;BME280;46198;51.464;-0.066;2024-03-23T09:02:22;101176.06;;;8.16;100.00
60355;BME280;46198;51.464;-0.066;2024-03-23T09:04:48;101182.38;;;8.23;100.00
60355;BME280;46198;51.464;-0.066;2024-03-23T09:07:16;101187.59;;;8.03;100.00
60355;BME280;46198;51.464;-0.066;2024-03-23T09:09:42;101179.16;;;8.13;100.00
60355;BME280;46198;51.464;-0.066;2024-03-23T09:12:10;101179.03;;;8.21;100.00
60355;BME280;46198;51.464;-0.066;2024-03-23T09:14:37;101185.22;;;8.15;100.00
60355;BME280;46198;51.464;-0.066;2024-03-23T09:17:05;101175.66;;;8.40;100.00
60355;BME280;46198;51.464;-0.066;2024-03-23T09:19:31;101174.66;;;8.41;100.00
60355;BME280;46198;51.464;-0.066;2024-03-23T09:21:58;101174.13;;;8.59;100.00
60355;BME280;46198;51.464;-0.066;2024-03-23T09:24:24;101182.00;;;8.54;100.00
60355;BME280;46198;51.464;-0.066;2024-03-23T09:26:51;101170.09;;;8.77;100.00
60355;BME280;46198;51.464;-0.066;2024-03-23T09:29:25;101173.16;;;8.67;100.00
60355;BME280;46198;51.464;-0.066;2024-03-23T09:31:54;101172.66;;;8.57;100.00
60355;BME280;46198;51.464;-0.066;2024-03-23T09:34:20;101157.22;;;8.85;100.00
60355;BME280;46198;51.464;-0.066;2024-03-23T09:36:50;101164.47;;;8.78;100.00
60355;BME280;46198;51.464;-0.066;2024-03-23T09:39:16;101150.91;;;8.43;100.00
60355;BME280;46198;51.464;-0.066;2024-03-23T09:41:44;101159.56;;;8.32;100.00
60355;BME280;46198;51.464;-0.066;2024-03-23T09:44:10;101167.72;;;8.67;100.00
60355;BME280;46198;51.464;-0.066;2024-03-23T09:46:38;101151.59;;;8.87;100.00
60355;BME280;46198;51.464;-0.066;2024-03-23T09:49:07;101136.44;;;8.99;100.00
60355;BME280;46198;51.464;-0.066;2024-03-23T09:51:36;101134.03;;;9.18;96.33
60355;BME280;46198;51.464;-0.066;2024-03-23T09:54:02;101142.06;;;8.98;93.46
60355;BME280;46198;51.464;-0.066;2024-03-23T09:56:30;101124.13;;;8.97;93.69
60355;BME280;46198;51.464;-0.066;2024-03-23T09:59:05;101137.09;;;9.01;93.72
60355;BME280;46198;51.464;-0.066;2024-03-23T10:01:33;101141.66;;;9.01;94.50
60355;BME280;46198;51.464;-0.066;2024-03-23T10:03:59;101134.09;;;8.90;91.23
60355;BME280;46198;51.464;-0.066;2024-03-23T10:06:28;101122.44;;;8.89;84.09
60355;BME280;46198;51.464;-0.066;2024-03-23T10:08:54;101117.34;;;8.66;90.69
60355;BME280;46198;51.464;-0.066;2024-03-23T10:11:21;101118.31;;;8.93;86.49
60355;BME280;46198;51.464;-0.066;2024-03-23T10:13:48;101100.09;;;9.28;93.73
60355;BME280;46198;51.464;-0.066;2024-03-23T10:16:23;101102.59;;;9.37;80.65
60355;BME280;46198;51.464;-0.066;2024-03-23T10:18:49;101088.38;;;9.28;81.65
60355;BME280;46198;51.464;-0.066;2024-03-23T10:21:17;101102.19;;;9.40;87.35
60355;BME280;46198;51.464;-0.066;2024-03-23T10:23:45;101091.31;;;9.26;77.07
60355;BME280;46198;51.464;-0.066;2024-03-23T10:26:15;101088.78;;;9.25;80.56
60355;BME280;46198;51.464;-0.066;2024-03-23T10:28:52;101087.16;;;9.44;77.86
60355;BME280;46198;51.464;-0.066;2024-03-23T10:31:20;101087.41;;;9.75;84.17
60355;BME280;46198;51.464;-0.066;2024-03-23T10:33:46;101080.72;;;10.11;72.77
60355;BME280;46198;51.464;-0.066;2024-03-23T10:36:14;101062.34;;;10.13;73.25
60355;BME280;46198;51.464;-0.066;2024-03-23T10:38:41;101065.94;;;9.67;69.80
60355;BME280;46198;51.464;-0.066;2024-03-23T10:41:10;101054.66;;;9.84;75.22
60355;BME280;46198;51.464;-0.066;2024-03-23T10:43:37;101067.81;;;9.53;66.17
60355;BME280;46198;51.464;-0.066;2024-03-23T10:46:05;101062.38;;;9.60;67.75
60355;BME280;46198;51.464;-0.066;2024-03-23T10:48:32;101063.84;;;9.83;69.31
60355;BME280;46198;51.464;-0.066;2024-03-23T10:51:00;101066.97;;;9.80;66.65
60355;BME280;46198;51.464;-0.066;2024-03-23T10:53:27;101065.50;;;9.97;71.62
60355;BME280;46198;51.464;-0.066;2024-03-23T10:55:55;101059.44;;;10.08;67.09
60355;BME280;46198;51.464;-0.066;2024-03-23T10:58:27;101063.63;;;9.91;64.64
60355;BME280;46198;51.464;-0.066;2024-03-23T11:00:57;101060.28;;;10.02;66.98
60355;BME280;46198;51.464;-0.066;2024-03-23T11:03:31;101062.59;;;9.92;66.98
60355;BME280;46198;51.464;-0.066;2024-03-23T11:05:59;101066.34;;;9.77;64.72
60355;BME280;46198;51.464;-0.066;2024-03-23T11:08:33;101042.31;;;10.08;67.96
60355;BME280;46198;51.464;-0.066;2024-03-23T11:11:14;101026.66;;;10.30;64.69
60355;BME280;46198;51.464;-0.066;2024-03-23T11:13:41;101041.88;;;10.17;61.65
60355;BME280;46198;51.464;-0.066;2024-03-23T11:16:22;101032.94;;;10.10;61.00
60355;BME280;46198;51.464;-0.066;2024-03-23T11:18:48;101030.00;;;10.32;64.25
60355;BME280;46198;51.464;-0.066;2024-03-23T11:24:16;101019.09;;;10.45;62.25
60355;BME280;46198;51.464;-0.066;2024-03-23T11:26:44;101010.38;;;10.30;59.98
60355;BME280;46198;51.464;-0.066;2024-03-23T11:29:13;101009.94;;;10.26;62.76
60355;BME280;46198;51.464;-0.066;2024-03-23T11:31:45;101012.31;;;10.68;58.55
60355;BME280;46198;51.464;-0.066;2024-03-23T11:34:12;101009.06;;;10.39;57.65
60355;BME280;46198;51.464;-0.066;2024-03-23T11:36:42;100995.69;;;10.44;59.94
60355;BME280;46198;51.464;-0.066;2024-03-23T11:39:12;101006.88;;;10.68;58.56
60355;BME280;46198;51.464;-0.066;2024-03-23T11:41:49;100994.25;;;10.80;61.44
60355;BME280;46198;51.464;-0.066;2024-03-23T11:44:17;100983.69;;;10.65;60.92
60355;BME280;46198;51.464;-0.066;2024-03-23T11:46:45;100998.50;;;10.69;59.27
60355;BME280;46198;51.464;-0.066;2024-03-23T11:49:22;100991.53;;;10.80;56.08
60355;BME280;46198;51.464;-0.066;2024-03-23T11:51:50;100984.25;;;10.80;53.62
60355;BME280;46198;51.464;-0.066;2024-03-23T11:54:20;100993.22;;;11.13;52.28
60355;BME280;46198;51.464;-0.066;2024-03-23T11:56:56;100970.13;;;11.28;53.59
60355;BME280;46198;51.464;-0.066;2024-03-23T11:59:33;100962.59;;;11.74;53.84
60355;BME280;46198;51.464;-0.066;2024-03-23T12:02:06;100967.34;;;11.35;51.54
60355;BME280;46198;51.464;-0.066;2024-03-23T12:04:32;100949.78;;;11.38;52.64
60355;BME280;46198;51.464;-0.066;2024-03-23T12:07:12;100946.31;;;11.49;50.64
60355;BME280;46198;51.464;-0.066;2024-03-23T12:09:38;100951.84;;;11.61;48.56
60355;BME280;46198;51.464;-0.066;2024-03-23T12:12:08;100953.69;;;11.85;50.35
60355;BME280;46198;51.464;-0.066;2024-03-23T12:14:36;100949.81;;;12.00;50.19
60355;BME280;46198;51.464;-0.066;2024-03-23T12:17:10;100969.88;;;11.80;48.53
60355;BME280;46198;51.464;-0.066;2024-03-23T12:19:37;100955.59;;;11.85;48.43
60355;BME280;46198;51.464;-0.066;2024-03-23T12:22:05;100946.09;;;11.94;49.20
60355;BME280;46198;51.464;-0.066;2024-03-23T12:24:32;100932.59;;;12.06;49.71
60355;BME280;46198;51.464;-0.066;2024-03-23T12:27:02;100918.41;;;12.34;51.21
60355;BME280;46198;51.464;-0.066;2024-03-23T12:29:29;100916.50;;;12.34;50.29
60355;BME280;46198;51.464;-0.066;2024-03-23T12:31:59;100928.94;;;11.93;48.62
60355;BME280;46198;51.464;-0.066;2024-03-23T12:34:26;100922.22;;;11.52;49.77
60355;BME280;46198;51.464;-0.066;2024-03-23T12:36:53;100940.56;;;11.14;52.02
60355;BME280;46198;51.464;-0.066;2024-03-23T12:39:22;100935.38;;;10.74;73.86
60355;BME280;46198;51.464;-0.066;2024-03-23T12:41:50;100920.34;;;11.03;84.90
60355;BME280;46198;51.464;-0.066;2024-03-23T12:44:18;100909.69;;;11.51;90.79
60355;BME280;46198;51.464;-0.066;2024-03-23T12:46:47;100907.28;;;11.18;71.11
60355;BME280;46198;51.464;-0.066;2024-03-23T12:49:14;100907.25;;;11.87;70.34
60355;BME280;46198;51.464;-0.066;2024-03-23T12:51:49;100884.94;;;12.15;66.90
60355;BME280;46198;51.464;-0.066;2024-03-23T12:54:19;100907.69;;;12.20;60.03
60355;BME280;46198;51.464;-0.066;2024-03-23T12:56:46;100895.69;;;12.10;58.06
60355;BME280;46198;51.464;-0.066;2024-03-23T12:59:12;100911.47;;;12.38;54.14
60355;BME280;46198;51.464;-0.066;2024-03-23T13:01:40;100881.75;;;12.78;54.44
60355;BME280;46198;51.464;-0.066;2024-03-23T13:04:06;100881.22;;;12.58;54.26
60355;BME280;46198;51.464;-0.066;2024-03-23T13:06:35;100873.78;;;12.65;53.66
60355;BME280;46198;51.464;-0.066;2024-03-23T13:09:01;100884.06;;;12.03;52.33
60355;BME280;46198;51.464;-0.066;2024-03-23T13:11:29;100889.28;;;12.34;53.35
60355;BME280;46198;51.464;-0.066;2024-03-23T13:13:56;100880.78;;;12.12;53.77
60355;BME280;46198;51.464;-0.066;2024-03-23T13:16:25;100877.34;;;12.05;56.35
60355;BME280;46198;51.464;-0.066;2024-03-23T13:18:52;100871.66;;;11.88;54.29
60355;BME280;46198;51.464;-0.066;2024-03-23T13:21:19;100880.22;;;12.94;52.81
60355;BME280;46198;51.464;-0.066;2024-03-23T13:23:48;100861.94;;;13.37;52.73
60355;BME280;46198;51.464;-0.066;2024-03-23T13:26:16;100856.22;;;13.03;50.61
60355;BME280;46198;51.464;-0.066;2024-03-23T13:28:43;100857.28;;;13.25;50.82
60355;BME280;46198;51.464;-0.066;2024-03-23T13:31:10;100866.13;;;12.85;51.89
60355;BME280;46198;51.464;-0.066;2024-03-23T13:33:37;100855.22;;;12.85;52.31
60355;BME280;46198;51.464;-0.066;2024-03-23T13:36:04;100861.53;;;12.56;50.11
60355;BME280;46198;51.464;-0.066;2024-03-23T13:38:31;100869.25;;;12.59;50.43
60355;BME280;46198;51.464;-0.066;2024-03-23T13:41:00;100858.97;;;12.61;51.50